Terminal Aerodrome Forecast
Issued by NWS

Home | Current Version | Previous Version | Text Only | Print | Product List | Glossary On
Versions: 1 2 3 4 5 6 7 8 9 10 11 12 13 14 15
000
FTUS43 KDVN 211100 AAA
TAFCID
TAF AMD
KCID 211157Z 2112/2212 27005KT 6SM -RA BR OVC080
      TEMPO 2112/2114 5SM -SHRA BR
     FM211500 23008KT P6SM VCSH SCT035 OVC070
     FM211900 28012G15KT 6SM -RA BR VCTS BKN040CB OVC070
     FM212300 33015G20KT P6SM SCT040 BKN070
     FM220200 34011KT P6SM FEW070=

USA.gov is the U.S. government's official web portal to all federal, state and local government web resources and services.